Terminal Aerodrome Forecast
Issued by NWS Lake Charles, LA

Home | Current Version | Previous Version | Text Only | Print | Product List | Glossary On
Versions: 1 2 3 4 5 6 7 8 9 10 11 12 13 14 15 16 17 18 19 20 21 22
000
FTUS44 KLCH 211700
TAFAEX
TAF
KAEX 211733Z 2118/2218 VRB04KT P6SM BKN008
      TEMPO 2118/2120 SCT015 SCT025
     FM212000 12004KT P6SM SCT025 SCT080
     FM220900 16004KT 4SM BR BKN012=

USA.gov is the U.S. government's official web portal to all federal, state and local government web resources and services.